createdAt,value
2018-03-26T00:00:38.804Z,9.45
2018-03-26T00:03:06.349Z,11.70
2018-03-26T00:05:33.882Z,10.02
2018-03-26T00:08:01.408Z,11.05
2018-03-26T00:10:28.933Z,12.88
2018-03-26T00:12:56.463Z,11.85
2018-03-26T00:15:23.992Z,11.18
2018-03-26T00:17:51.520Z,13.38
2018-03-26T00:20:19.062Z,12.02
2018-03-26T00:22:46.573Z,11.85
2018-03-26T00:25:14.120Z,15.35
2018-03-26T00:27:41.635Z,12.65
2018-03-26T00:30:09.182Z,11.75
2018-03-26T00:32:36.719Z,13.13
2018-03-26T00:35:04.284Z,12.45
2018-03-26T00:37:31.824Z,12.88
2018-03-26T00:39:59.379Z,13.18
2018-03-26T00:42:26.899Z,12.02
2018-03-26T00:44:54.428Z,12.82
2018-03-26T00:47:21.955Z,10.30
2018-03-26T00:49:49.484Z,9.63
2018-03-26T00:52:19.101Z,10.68
2018-03-26T00:54:47.378Z,9.93
2018-03-26T00:57:15.684Z,8.77
2018-03-26T00:59:43.217Z,10.15
2018-03-26T01:02:11.534Z,9.43
2018-03-26T01:04:39.059Z,8.70
2018-03-26T01:07:07.356Z,10.32
2018-03-26T01:09:34.916Z,9.93
2018-03-26T01:12:02.452Z,8.73
2018-03-26T01:14:29.996Z,10.27
2018-03-26T01:16:58.322Z,9.60
2018-03-26T01:19:25.877Z,8.70
2018-03-26T01:21:53.385Z,7.87
2018-03-26T01:24:20.958Z,8.60
2018-03-26T01:26:49.236Z,9.20
2018-03-26T01:29:17.520Z,9.23
2018-03-26T01:31:45.857Z,9.25
2018-03-26T01:34:13.417Z,9.40
2018-03-26T01:36:40.944Z,8.90
2018-03-26T01:39:08.497Z,9.48
2018-03-26T01:41:36.015Z,9.57
2018-03-26T01:44:03.547Z,9.27
2018-03-26T01:46:31.092Z,11.73
2018-03-26T01:48:58.627Z,9.35
2018-03-26T01:51:26.454Z,8.75
2018-03-26T01:53:54.058Z,10.18
2018-03-26T01:56:21.588Z,9.45
2018-03-26T01:58:49.862Z,9.32
2018-03-26T02:01:18.188Z,8.93
2018-03-26T02:03:45.697Z,9.10
2018-03-26T02:06:13.983Z,8.48
2018-03-26T02:08:42.300Z,9.88
2018-03-26T02:11:09.828Z,8.65
2018-03-26T02:13:37.345Z,9.23
2018-03-26T02:16:04.890Z,8.95
2018-03-26T02:18:32.402Z,9.10
2018-03-26T02:20:59.928Z,8.80
2018-03-26T02:23:27.464Z,8.02
2018-03-26T02:25:54.984Z,8.50
2018-03-26T02:28:22.521Z,8.85
2018-03-26T02:30:50.827Z,8.60
2018-03-26T02:33:18.356Z,8.93
2018-03-26T02:35:46.644Z,8.40
2018-03-26T02:38:14.976Z,8.65
2018-03-26T02:40:42.491Z,8.25
2018-03-26T02:43:10.028Z,8.27
2018-03-26T02:45:38.358Z,8.57
2018-03-26T02:48:05.875Z,8.68
2018-03-26T02:50:34.173Z,9.10
2018-03-26T02:53:01.732Z,8.20
2018-03-26T02:55:29.252Z,8.80
2018-03-26T02:57:57.556Z,8.40
2018-03-26T03:00:25.113Z,9.30
2018-03-26T03:02:52.648Z,10.27
2018-03-26T03:05:20.945Z,9.35
2018-03-26T03:07:48.513Z,9.85
2018-03-26T03:10:16.037Z,8.75
2018-03-26T03:12:43.557Z,9.18
2018-03-26T03:15:11.102Z,9.00
2018-03-26T03:17:38.620Z,9.07
2018-03-26T03:20:06.922Z,7.25
2018-03-26T03:22:34.519Z,8.95
2018-03-26T03:25:02.021Z,7.25
2018-03-26T03:27:30.316Z,8.82
2018-03-26T03:29:57.871Z,10.38
2018-03-26T03:32:26.177Z,9.10
2018-03-26T03:34:53.718Z,9.80
2018-03-26T03:37:21.271Z,7.55
2018-03-26T03:39:48.788Z,6.15
2018-03-26T03:42:16.329Z,8.07
2018-03-26T03:44:43.886Z,7.37
2018-03-26T03:47:11.420Z,7.50
2018-03-26T03:49:38.937Z,8.90
2018-03-26T03:52:06.503Z,8.55
2018-03-26T03:54:34.781Z,10.10
2018-03-26T03:57:03.066Z,8.73
2018-03-26T03:59:31.381Z,8.77
2018-03-26T04:01:58.900Z,8.68
2018-03-26T04:04:27.185Z,8.55
2018-03-26T04:06:55.511Z,8.48
2018-03-26T04:09:23.057Z,9.18
2018-03-26T04:11:50.579Z,9.50
2018-03-26T04:14:18.900Z,8.82
2018-03-26T04:16:46.413Z,9.18
2018-03-26T04:19:14.706Z,7.60
2018-03-26T04:21:42.277Z,8.75
2018-03-26T04:24:09.794Z,9.77
2018-03-26T04:26:38.073Z,8.77
2018-03-26T04:29:06.404Z,8.55
2018-03-26T04:31:33.939Z,9.27
2018-03-26T04:34:01.469Z,8.45
2018-03-26T04:36:29.773Z,10.20
2018-03-26T04:38:57.309Z,8.65
2018-03-26T04:41:25.592Z,9.52
2018-03-26T04:43:53.908Z,9.43
2018-03-26T04:46:21.426Z,8.70
2018-03-26T04:48:49.712Z,8.68
2018-03-26T04:51:17.262Z,9.30
2018-03-26T04:53:44.785Z,8.07
2018-03-26T04:56:12.331Z,8.88
2018-03-26T04:58:39.896Z,7.93
2018-03-26T05:01:08.196Z,7.62
2018-03-26T05:03:37.351Z,7.55
2018-03-26T05:06:04.989Z,7.90
2018-03-26T05:08:32.533Z,7.40
2018-03-26T05:11:00.810Z,8.27
2018-03-26T05:13:29.141Z,8.27
2018-03-26T05:15:56.676Z,6.97
2018-03-26T05:18:24.194Z,7.75
2018-03-26T05:20:52.540Z,7.05
2018-03-26T05:23:20.059Z,7.07
2018-03-26T05:25:47.578Z,7.40
2018-03-26T05:28:15.122Z,8.55
2018-03-26T05:30:42.635Z,7.65
2018-03-26T05:33:10.171Z,8.70
2018-03-26T05:35:38.490Z,8.18
2018-03-26T05:38:06.004Z,8.38
2018-03-26T05:40:34.328Z,8.27
2018-03-26T05:43:01.857Z,8.40
2018-03-26T05:45:29.388Z,8.65
2018-03-26T05:47:57.687Z,8.30
2018-03-26T05:50:26.018Z,7.50
2018-03-26T05:52:53.536Z,8.20
2018-03-26T05:55:21.054Z,8.70
2018-03-26T05:57:48.590Z,8.73
2018-03-26T06:00:16.110Z,8.85
2018-03-26T06:02:43.645Z,7.20
2018-03-26T06:05:11.975Z,8.13
2018-03-26T06:07:39.494Z,8.60
2018-03-26T06:10:07.777Z,7.20
2018-03-26T06:12:35.364Z,7.57
2018-03-26T06:15:02.880Z,8.55
2018-03-26T06:17:31.162Z,7.60
2018-03-26T06:20:00.447Z,7.50
2018-03-26T06:22:28.728Z,6.87
2018-03-26T06:24:57.044Z,6.50
2018-03-26T06:27:24.581Z,7.75
2018-03-26T06:29:52.108Z,6.05
2018-03-26T06:32:19.641Z,6.78
2018-03-26T06:34:47.182Z,7.43
2018-03-26T06:40:19.364Z,7.32
2018-03-26T06:42:46.904Z,7.05
2018-03-26T06:45:14.433Z,8.55
2018-03-26T06:47:41.980Z,7.00
2018-03-26T06:50:09.513Z,8.07
2018-03-26T06:52:37.020Z,7.45
2018-03-26T06:55:05.341Z,8.23
2018-03-26T06:57:32.872Z,7.03
2018-03-26T07:00:01.174Z,6.82
2018-03-26T07:02:28.720Z,6.50
2018-03-26T07:04:56.246Z,6.80
2018-03-26T07:07:24.534Z,6.68
2018-03-26T07:09:52.856Z,6.43
2018-03-26T07:12:20.425Z,6.53
2018-03-26T07:14:47.926Z,8.02
2018-03-26T07:17:16.239Z,6.57
2018-03-26T07:19:43.760Z,9.30
2018-03-26T07:22:12.061Z,9.60
2018-03-26T07:24:39.615Z,9.60
2018-03-26T07:27:07.140Z,8.68
2018-03-26T07:29:34.671Z,9.20
2018-03-26T07:32:02.214Z,9.60
2018-03-26T07:34:29.741Z,9.02
2018-03-26T07:36:58.029Z,9.45
2018-03-26T07:39:25.568Z,8.57
2018-03-26T07:41:53.102Z,9.75
2018-03-26T07:44:20.622Z,8.75
2018-03-26T07:46:48.183Z,9.85
2018-03-26T07:49:15.723Z,10.10
2018-03-26T07:51:43.251Z,10.05
2018-03-26T07:54:10.808Z,9.10
2018-03-26T07:56:38.336Z,9.52
2018-03-26T07:59:05.854Z,8.20
2018-03-26T08:01:33.414Z,8.60
2018-03-26T08:04:01.696Z,9.32
2018-03-26T08:06:29.222Z,9.10
2018-03-26T08:08:56.774Z,8.10
2018-03-26T08:11:24.369Z,8.98
2018-03-26T08:13:51.859Z,8.32
2018-03-26T08:16:19.475Z,8.10
2018-03-26T08:18:46.975Z,8.68
2018-03-26T08:21:14.498Z,9.43
2018-03-26T08:23:42.809Z,9.57
2018-03-26T08:26:10.322Z,9.82
2018-03-26T08:28:38.621Z,10.05
2018-03-26T08:31:06.188Z,10.27
2018-03-26T08:33:33.714Z,10.05
2018-03-26T08:36:02.021Z,9.60
2018-03-26T08:38:29.606Z,11.20
2018-03-26T08:40:57.136Z,10.20
2018-03-26T08:43:24.661Z,11.23
2018-03-26T08:45:52.212Z,11.27
2018-03-26T08:48:20.951Z,11.05
2018-03-26T08:50:49.317Z,11.25
2018-03-26T08:53:17.633Z,10.30
2018-03-26T08:55:45.938Z,10.82
2018-03-26T08:58:13.487Z,11.10
2018-03-26T09:00:41.054Z,10.32
2018-03-26T09:03:08.591Z,11.45
2018-03-26T09:05:36.113Z,11.55
2018-03-26T09:08:03.696Z,12.00
2018-03-26T09:10:31.230Z,12.37
2018-03-26T09:12:58.762Z,11.60
2018-03-26T09:15:27.082Z,13.27
2018-03-26T09:17:54.612Z,13.90
2018-03-26T09:20:22.900Z,13.52
2018-03-26T09:22:50.451Z,13.75
2018-03-26T09:25:18.730Z,15.95
2018-03-26T09:27:46.261Z,15.82
2018-03-26T09:30:13.829Z,15.27
2018-03-26T09:32:42.142Z,15.38
2018-03-26T09:35:09.702Z,18.33
2018-03-26T09:37:37.251Z,14.95
2018-03-26T09:40:04.804Z,16.35
2018-03-26T09:42:32.337Z,16.27
2018-03-26T09:44:59.909Z,17.05
2018-03-26T09:47:28.203Z,16.48
2018-03-26T09:49:55.721Z,16.77
2018-03-26T09:52:23.288Z,18.45
2018-03-26T09:54:50.815Z,16.52
2018-03-26T09:57:18.344Z,17.70
2018-03-26T09:59:45.892Z,18.50
2018-03-26T10:02:13.420Z,19.17
2018-03-26T10:04:40.946Z,20.60
2018-03-26T10:07:08.503Z,20.25
2018-03-26T10:09:36.017Z,21.27
2018-03-26T10:12:04.308Z,19.23
2018-03-26T10:14:31.861Z,20.17
2018-03-26T10:17:00.144Z,19.92
2018-03-26T10:19:28.680Z,21.02
2018-03-26T10:21:56.251Z,20.20
2018-03-26T10:24:23.763Z,21.77
2018-03-26T10:26:51.282Z,20.73
2018-03-26T10:29:19.603Z,19.37
2018-03-26T10:31:47.127Z,22.87
2018-03-26T10:34:15.441Z,19.85
2018-03-26T10:36:43.898Z,21.73
2018-03-26T10:39:11.419Z,22.87
2018-03-26T10:41:38.961Z,23.17
2018-03-26T10:44:06.524Z,23.65
2018-03-26T10:46:34.060Z,23.70
2018-03-26T10:49:01.590Z,22.50
2018-03-26T10:51:29.159Z,22.62
2018-03-26T10:53:56.706Z,23.98
2018-03-26T10:56:24.252Z,24.33
2018-03-26T10:58:52.584Z,23.70
2018-03-26T11:01:20.109Z,24.90
2018-03-26T11:03:47.646Z,23.65
2018-03-26T11:06:15.968Z,22.27
2018-03-26T11:08:43.496Z,21.80
2018-03-26T11:11:11.030Z,20.52
2018-03-26T11:13:38.578Z,21.27
2018-03-26T11:16:06.132Z,21.35
2018-03-26T11:18:33.662Z,19.98
2018-03-26T11:21:01.207Z,21.08
2018-03-26T11:23:28.763Z,21.65
2018-03-26T11:25:56.459Z,21.08
2018-03-26T11:28:24.019Z,20.50
2018-03-26T11:30:51.552Z,20.35
2018-03-26T11:33:19.087Z,20.85
2018-03-26T11:35:47.412Z,19.40
2018-03-26T11:38:15.720Z,19.77
2018-03-26T11:40:43.260Z,21.87
2018-03-26T11:43:10.802Z,19.62
2018-03-26T11:45:38.352Z,20.27
2018-03-26T11:48:05.887Z,21.50
2018-03-26T11:50:33.460Z,20.42
2018-03-26T11:53:01.001Z,20.30
2018-03-26T11:55:28.552Z,19.35
2018-03-26T11:57:56.884Z,18.73
2018-03-26T12:00:24.409Z,21.23
2018-03-26T12:02:51.929Z,19.95
2018-03-26T12:05:20.249Z,20.98
2018-03-26T12:07:47.796Z,20.08
2018-03-26T12:10:15.323Z,20.58
2018-03-26T12:12:42.896Z,21.25
2018-03-26T12:15:11.186Z,20.90
2018-03-26T12:17:38.731Z,21.95
2018-03-26T12:20:18.060Z,21.30
2018-03-26T12:22:45.601Z,21.33
2018-03-26T12:25:13.129Z,19.77
2018-03-26T12:27:52.564Z,21.83
2018-03-26T12:30:27.896Z,21.15
2018-03-26T12:32:55.446Z,22.30
2018-03-26T12:35:35.027Z,20.40
2018-03-26T12:38:02.587Z,21.37
2018-03-26T12:40:42.017Z,21.58
2018-03-26T12:43:09.578Z,22.08
2018-03-26T12:45:49.029Z,21.73
2018-03-26T12:48:16.595Z,21.45
2018-03-26T12:50:56.027Z,23.20
2018-03-26T12:53:23.577Z,20.42
2018-03-26T12:55:51.126Z,22.55
2018-03-26T12:58:30.471Z,22.70
2018-03-26T13:01:09.830Z,23.08
2018-03-26T13:03:37.385Z,22.27
2018-03-26T13:06:04.913Z,21.35
2018-03-26T13:08:32.433Z,22.98
2018-03-26T13:11:00.772Z,22.13
2018-03-26T13:13:28.290Z,23.60
2018-03-26T13:15:55.833Z,21.55
2018-03-26T13:18:23.428Z,24.02
2018-03-26T13:20:50.956Z,22.80
2018-03-26T13:23:18.491Z,21.12
2018-03-26T13:25:46.807Z,21.73
2018-03-26T13:28:14.374Z,22.52
2018-03-26T13:30:41.887Z,21.00
2018-03-26T13:33:10.208Z,22.60
2018-03-26T13:35:37.744Z,21.67
2018-03-26T13:38:05.286Z,21.27
2018-03-26T13:40:34.036Z,20.35
2018-03-26T13:43:01.625Z,21.55
2018-03-26T13:45:29.959Z,21.45
2018-03-26T13:47:57.526Z,22.00
2018-03-26T13:50:25.072Z,23.05
2018-03-26T13:52:52.607Z,21.92
2018-03-26T13:55:20.166Z,20.80
2018-03-26T13:57:47.752Z,21.40
2018-03-26T14:00:15.311Z,20.50
2018-03-26T14:02:42.874Z,19.95
2018-03-26T14:05:10.421Z,19.40
2018-03-26T14:07:37.955Z,21.27
2018-03-26T14:10:18.297Z,22.00
2018-03-26T14:12:58.344Z,21.40
2018-03-26T14:15:37.831Z,20.15
2018-03-26T14:18:05.391Z,22.08
2018-03-26T14:20:32.939Z,20.75
2018-03-26T14:23:00.514Z,21.65
2018-03-26T14:25:28.066Z,23.30
2018-03-26T14:27:55.597Z,21.90
2018-03-26T14:30:23.919Z,24.12
2018-03-26T14:32:51.479Z,22.15
2018-03-26T14:38:19.691Z,23.35
2018-03-26T14:40:47.276Z,22.35
2018-03-26T14:43:14.827Z,25.00
2018-03-26T14:45:43.128Z,24.02
2018-03-26T14:48:11.462Z,22.25
2018-03-26T14:50:39.009Z,23.20
2018-03-26T14:53:06.572Z,22.40
2018-03-26T14:55:34.142Z,24.00
2018-03-26T14:58:02.450Z,21.30
2018-03-26T15:00:30.762Z,22.20
2018-03-26T15:02:58.311Z,23.42
2018-03-26T15:05:25.840Z,22.40
2018-03-26T15:07:53.370Z,21.62
2018-03-26T15:10:20.926Z,21.90
2018-03-26T15:12:48.456Z,21.05
2018-03-26T15:15:16.002Z,21.83
2018-03-26T15:17:43.556Z,23.00
2018-03-26T15:20:12.048Z,22.05
2018-03-26T15:22:39.572Z,20.77
2018-03-26T15:25:07.144Z,21.80
2018-03-26T15:27:35.427Z,20.55
2018-03-26T15:30:03.728Z,19.45
2018-03-26T15:32:31.292Z,20.58
2018-03-26T15:34:58.812Z,19.75
2018-03-26T15:37:27.098Z,21.92
2018-03-26T15:39:55.430Z,20.35
2018-03-26T15:42:22.975Z,19.48
2018-03-26T15:44:50.516Z,19.12
2018-03-26T15:47:18.097Z,19.33
2018-03-26T15:49:45.616Z,21.40
2018-03-26T15:52:13.900Z,22.80
2018-03-26T15:54:41.460Z,20.48
2018-03-26T15:57:08.994Z,21.85
2018-03-26T15:59:37.286Z,23.58
2018-03-26T16:02:05.143Z,23.12
2018-03-26T16:04:33.436Z,21.17
2018-03-26T16:07:01.731Z,21.95
2018-03-26T16:09:29.289Z,23.52
2018-03-26T16:11:56.808Z,24.52
2018-03-26T16:14:24.334Z,22.42
2018-03-26T16:16:51.899Z,23.20
2018-03-26T16:19:19.412Z,21.00
2018-03-26T16:21:46.960Z,20.88
2018-03-26T16:24:15.278Z,22.25
2018-03-26T16:26:42.821Z,23.65
2018-03-26T16:29:10.342Z,24.58
2018-03-26T16:31:37.900Z,22.27
2018-03-26T16:34:05.419Z,23.00
2018-03-26T16:36:32.956Z,22.83
2018-03-26T16:39:00.511Z,21.90
2018-03-26T16:41:39.852Z,19.58
2018-03-26T16:44:07.429Z,22.65
2018-03-26T16:46:34.972Z,20.67
2018-03-26T16:49:02.500Z,19.73
2018-03-26T16:51:30.824Z,20.08
2018-03-26T16:53:58.352Z,22.48
2018-03-26T16:56:26.653Z,21.15
2018-03-26T16:58:54.208Z,20.83
2018-03-26T17:01:21.738Z,20.85
2018-03-26T17:03:50.022Z,21.25
2018-03-26T17:06:18.361Z,21.70
2018-03-26T17:08:45.872Z,22.77
2018-03-26T17:11:13.415Z,23.60
2018-03-26T17:13:41.740Z,23.45
2018-03-26T17:16:09.266Z,21.90
2018-03-26T17:18:36.793Z,21.62
2018-03-26T17:21:05.158Z,23.55
2018-03-26T17:23:32.690Z,21.55
2018-03-26T17:26:00.221Z,21.48
2018-03-26T17:28:27.786Z,22.30
2018-03-26T17:30:55.318Z,21.50
2018-03-26T17:33:23.619Z,21.77
2018-03-26T17:35:51.169Z,20.75
2018-03-26T17:38:18.720Z,23.23
2018-03-26T17:40:47.036Z,22.30
2018-03-26T17:43:14.589Z,20.60
2018-03-26T17:45:42.119Z,21.85
2018-03-26T17:48:09.654Z,19.62
2018-03-26T17:50:37.966Z,19.67
2018-03-26T17:53:05.499Z,22.80
2018-03-26T17:55:33.823Z,22.60
2018-03-26T17:58:01.402Z,21.10
2018-03-26T18:00:28.924Z,23.15
2018-03-26T18:02:56.439Z,25.42
2018-03-26T18:05:23.974Z,22.87
2018-03-26T18:07:51.512Z,22.20
2018-03-26T18:10:19.072Z,21.15
2018-03-26T18:12:46.610Z,21.67
2018-03-26T18:15:14.147Z,23.23
2018-03-26T18:17:42.453Z,23.85
2018-03-26T18:20:10.034Z,22.77
2018-03-26T18:22:37.555Z,23.77
2018-03-26T18:25:05.848Z,22.83
2018-03-26T18:27:33.403Z,22.40
2018-03-26T18:30:00.928Z,23.33
2018-03-26T18:32:28.475Z,24.33
2018-03-26T18:34:56.003Z,22.35
2018-03-26T18:37:23.541Z,24.35
2018-03-26T18:39:51.100Z,23.70
2018-03-26T18:42:18.640Z,23.02
2018-03-26T18:44:46.947Z,26.67
2018-03-26T18:47:14.515Z,23.65
2018-03-26T18:49:42.056Z,22.23
2018-03-26T18:52:09.606Z,24.58
2018-03-26T18:54:37.147Z,23.27
2018-03-26T18:57:05.466Z,23.48
2018-03-26T18:59:33.007Z,23.52
2018-03-26T19:02:00.536Z,21.33
2018-03-26T19:04:28.864Z,24.42
2018-03-26T19:06:56.399Z,23.45
2018-03-26T19:09:23.934Z,23.90
2018-03-26T19:11:52.244Z,21.85
2018-03-26T19:14:19.769Z,22.58
2018-03-26T19:16:48.095Z,23.12
2018-03-26T19:19:15.615Z,23.12
2018-03-26T19:21:43.907Z,23.55
2018-03-26T19:24:11.473Z,24.15
2018-03-26T19:26:38.993Z,25.45
2018-03-26T19:29:06.546Z,24.98
2018-03-26T19:31:34.088Z,25.35
2018-03-26T19:34:01.624Z,27.85
2018-03-26T19:36:29.184Z,27.13
2018-03-26T19:38:56.730Z,26.80
2018-03-26T19:41:24.304Z,27.13
2018-03-26T19:43:51.823Z,26.50
2018-03-26T19:46:20.143Z,26.75
2018-03-26T19:48:47.700Z,26.33
2018-03-26T19:51:15.226Z,26.60
2018-03-26T19:53:43.557Z,27.62
2018-03-26T19:56:11.092Z,26.12
2018-03-26T19:58:38.610Z,25.55
2018-03-26T20:01:06.928Z,26.85
2018-03-26T20:03:34.508Z,25.85
2018-03-26T20:06:02.063Z,30.55
2018-03-26T20:08:29.582Z,29.63
2018-03-26T20:10:57.110Z,28.17
2018-03-26T20:13:24.648Z,27.87
2018-03-26T20:15:52.280Z,28.35
2018-03-26T20:18:19.823Z,27.83
2018-03-26T20:20:47.365Z,29.33
2018-03-26T20:23:15.712Z,27.80
2018-03-26T20:25:43.218Z,28.85
2018-03-26T20:28:10.756Z,29.50
2018-03-26T20:30:39.067Z,28.23
2018-03-26T20:33:06.580Z,26.98
2018-03-26T20:35:34.117Z,29.15
2018-03-26T20:38:01.668Z,29.05
2018-03-26T20:40:29.195Z,32.50
2018-03-26T20:42:56.747Z,28.62
2018-03-26T20:45:24.280Z,28.00
2018-03-26T20:47:52.574Z,27.17
2018-03-26T20:50:20.877Z,27.48
2018-03-26T20:52:48.407Z,28.10
2018-03-26T20:55:16.719Z,28.23
2018-03-26T20:57:44.242Z,31.58
2018-03-26T21:00:12.535Z,29.00
2018-03-26T21:02:40.096Z,25.88
2018-03-26T21:05:07.622Z,28.00
2018-03-26T21:07:35.946Z,29.12
2018-03-26T21:10:03.470Z,30.75
2018-03-26T21:12:31.766Z,31.08
2018-03-26T21:14:59.317Z,29.75
2018-03-26T21:17:26.858Z,28.08
2018-03-26T21:19:55.165Z,27.45
2018-03-26T21:22:22.686Z,28.50
2018-03-26T21:24:50.211Z,29.50
2018-03-26T21:27:17.773Z,29.55
2018-03-26T21:29:45.300Z,28.75
2018-03-26T21:32:12.926Z,28.15
2018-03-26T21:34:40.392Z,28.65
2018-03-26T21:37:08.701Z,30.65
2018-03-26T21:39:36.245Z,30.08
2018-03-26T21:42:03.770Z,28.90
2018-03-26T21:44:31.351Z,27.77
2018-03-26T21:46:58.893Z,30.65
2018-03-26T21:49:26.439Z,29.67
2018-03-26T21:51:53.981Z,29.00
2018-03-26T21:54:21.522Z,30.92
2018-03-26T21:56:49.071Z,30.98
2018-03-26T21:59:16.585Z,30.80
2018-03-26T22:01:44.111Z,29.73
2018-03-26T22:04:11.661Z,32.00
2018-03-26T22:06:39.192Z,30.42
2018-03-26T22:09:06.745Z,28.33
2018-03-26T22:11:34.271Z,29.50
2018-03-26T22:14:01.827Z,28.33
2018-03-26T22:16:29.365Z,29.20
2018-03-26T22:18:56.891Z,26.23
2018-03-26T22:21:24.442Z,30.50
2018-03-26T22:23:52.720Z,30.35
2018-03-26T22:26:20.247Z,29.95
2018-03-26T22:28:47.797Z,29.58
2018-03-26T22:31:15.325Z,28.00
2018-03-26T22:33:42.890Z,28.25
2018-03-26T22:36:10.440Z,28.80
2018-03-26T22:38:37.976Z,30.67
2018-03-26T22:41:05.521Z,31.60
2018-03-26T22:43:33.816Z,28.80
2018-03-26T22:46:01.381Z,32.05
2018-03-26T22:48:28.919Z,28.87
2018-03-26T22:50:57.212Z,29.50
2018-03-26T22:53:24.771Z,29.08
2018-03-26T22:55:52.302Z,28.85
2018-03-26T22:58:20.629Z,30.83
2018-03-26T23:00:48.163Z,32.50
2018-03-26T23:03:15.705Z,31.20
2018-03-26T23:05:44.030Z,31.20
2018-03-26T23:08:11.565Z,31.00
2018-03-26T23:10:39.123Z,31.25
2018-03-26T23:13:06.656Z,30.83
2018-03-26T23:15:34.944Z,31.90
2018-03-26T23:18:03.259Z,29.40
2018-03-26T23:20:30.791Z,36.25
2018-03-26T23:22:58.351Z,31.17
2018-03-26T23:25:25.878Z,31.60
2018-03-26T23:27:53.441Z,31.75
2018-03-26T23:30:21.752Z,28.70
2018-03-26T23:32:49.283Z,30.17
2018-03-26T23:35:17.604Z,32.78
2018-03-26T23:37:45.147Z,32.58
2018-03-26T23:40:12.712Z,31.17
2018-03-26T23:42:40.245Z,29.50
2018-03-26T23:45:08.543Z,32.00
2018-03-26T23:47:36.109Z,32.85
2018-03-26T23:50:03.640Z,30.02
2018-03-26T23:52:31.940Z,32.00
2018-03-26T23:54:59.498Z,29.33
2018-03-26T23:57:27.041Z,32.03
2018-03-26T23:59:54.576Z,32.10
